Terminal Aerodrome Forecast
Issued by NWS

Home | Current Version | Previous Version | Text Only | Print | Product List | Glossary On
Versions: 1 2 3 4 5 6 7 8 9 10 11
000
FTUS45 KABQ 190535
TAFSAF
TAF
KSAF 190535Z 1906/2006 23013G23KT P6SM SCT060
     FM190900 21010KT P6SM BKN050
     FM191600 21021G31KT P6SM BKN060
     FM192100 21027G37KT P6SM BKN080
     FM200400 21021G31KT P6SM VCSH OVC050=

USA.gov is the U.S. government's official web portal to all federal, state and local government web resources and services.